sensor_id;sensor_type;location;lat;lon;timestamp;pressure;altitude;pressure_sealevel;temperature;humidity
14594;BME280;7383;52.354;9.756;2023-07-24T00:01:06;-12817.66;;;20.97;100.00
14594;BME280;7383;52.354;9.756;2023-07-24T00:03:33;-12817.56;;;20.96;100.00
14594;BME280;7383;52.354;9.756;2023-07-24T00:06:00;-12817.16;;;20.94;100.00
14594;BME280;7383;52.354;9.756;2023-07-24T00:08:27;-12816.78;;;20.92;100.00
14594;BME280;7383;52.354;9.756;2023-07-24T00:10:53;-12816.19;;;20.88;100.00
14594;BME280;7383;52.354;9.756;2023-07-24T00:13:22;-12816.09;;;20.88;100.00
14594;BME280;7383;52.354;9.756;2023-07-24T00:15:49;-12815.78;;;20.86;100.00
14594;BME280;7383;52.354;9.756;2023-07-24T00:18:15;-12815.44;;;20.84;100.00
14594;BME280;7383;52.354;9.756;2023-07-24T00:20:42;-12815.16;;;20.82;100.00
14594;BME280;7383;52.354;9.756;2023-07-24T00:23:09;-12814.81;;;20.80;100.00
14594;BME280;7383;52.354;9.756;2023-07-24T00:25:35;-12815.16;;;20.82;100.00
14594;BME280;7383;52.354;9.756;2023-07-24T00:28:02;-12814.81;;;20.80;100.00
14594;BME280;7383;52.354;9.756;2023-07-24T00:30:30;-12815.16;;;20.82;100.00
14594;BME280;7383;52.354;9.756;2023-07-24T00:32:57;-12815.25;;;20.83;100.00
14594;BME280;7383;52.354;9.756;2023-07-24T00:35:25;-12815.34;;;20.83;100.00
14594;BME280;7383;52.354;9.756;2023-07-24T00:37:54;-12815.16;;;20.82;100.00
14594;BME280;7383;52.354;9.756;2023-07-24T00:40:21;-12814.81;;;20.80;100.00
14594;BME280;7383;52.354;9.756;2023-07-24T00:42:49;-12814.41;;;20.78;100.00
14594;BME280;7383;52.354;9.756;2023-07-24T00:45:16;-12814.31;;;20.77;100.00
14594;BME280;7383;52.354;9.756;2023-07-24T00:47:44;-12814.91;;;20.81;100.00
14594;BME280;7383;52.354;9.756;2023-07-24T00:50:11;-12814.91;;;20.81;100.00
14594;BME280;7383;52.354;9.756;2023-07-24T00:52:39;-12815.16;;;20.82;100.00
14594;BME280;7383;52.354;9.756;2023-07-24T00:55:07;-12814.75;;;20.80;100.00
14594;BME280;7383;52.354;9.756;2023-07-24T00:57:34;-12814.66;;;20.79;100.00
14594;BME280;7383;52.354;9.756;2023-07-24T01:00:01;-12815.00;;;20.81;100.00
14594;BME280;7383;52.354;9.756;2023-07-24T01:02:29;-12815.25;;;20.83;100.00
14594;BME280;7383;52.354;9.756;2023-07-24T01:05:00;-12815.09;;;20.82;100.00
14594;BME280;7383;52.354;9.756;2023-07-24T01:07:27;-12814.91;;;20.81;100.00
14594;BME280;7383;52.354;9.756;2023-07-24T01:09:54;-12814.47;;;20.78;100.00
14594;BME280;7383;52.354;9.756;2023-07-24T01:12:27;-12815.16;;;20.82;100.00
14594;BME280;7383;52.354;9.756;2023-07-24T01:15:05;-12815.16;;;20.82;100.00
14594;BME280;7383;52.354;9.756;2023-07-24T01:17:34;-12815.25;;;20.83;100.00
14594;BME280;7383;52.354;9.756;2023-07-24T01:20:07;-12815.09;;;20.82;100.00
14594;BME280;7383;52.354;9.756;2023-07-24T01:22:39;-12814.56;;;20.79;100.00
14594;BME280;7383;52.354;9.756;2023-07-24T01:25:14;-12814.31;;;20.77;100.00
14594;BME280;7383;52.354;9.756;2023-07-24T01:27:45;-12814.47;;;20.78;100.00
14594;BME280;7383;52.354;9.756;2023-07-24T01:30:17;-12814.66;;;20.79;100.00
14594;BME280;7383;52.354;9.756;2023-07-24T01:32:44;-12815.00;;;20.81;100.00
14594;BME280;7383;52.354;9.756;2023-07-24T01:35:11;-12815.00;;;20.81;100.00
14594;BME280;7383;52.354;9.756;2023-07-24T01:37:39;-12814.75;;;20.80;100.00
14594;BME280;7383;52.354;9.756;2023-07-24T01:40:07;-12814.81;;;20.80;100.00
14594;BME280;7383;52.354;9.756;2023-07-24T01:42:34;-12814.66;;;20.79;100.00
14594;BME280;7383;52.354;9.756;2023-07-24T01:45:03;-12813.88;;;20.75;100.00
14594;BME280;7383;52.354;9.756;2023-07-24T01:47:30;-12813.88;;;20.75;100.00
14594;BME280;7383;52.354;9.756;2023-07-24T01:49:57;-12814.31;;;20.77;100.00
14594;BME280;7383;52.354;9.756;2023-07-24T01:52:25;-12813.72;;;20.74;100.00
14594;BME280;7383;52.354;9.756;2023-07-24T01:54:52;-12813.09;;;20.70;100.00
14594;BME280;7383;52.354;9.756;2023-07-24T01:57:18;-12813.19;;;20.71;100.00
14594;BME280;7383;52.354;9.756;2023-07-24T01:59:45;-12813.09;;;20.70;100.00
14594;BME280;7383;52.354;9.756;2023-07-24T02:02:13;-12813.19;;;20.71;100.00
14594;BME280;7383;52.354;9.756;2023-07-24T02:04:39;-12813.44;;;20.72;100.00
14594;BME280;7383;52.354;9.756;2023-07-24T02:07:07;-12813.38;;;20.72;100.00
14594;BME280;7383;52.354;9.756;2023-07-24T02:09:34;-12813.09;;;20.70;100.00
14594;BME280;7383;52.354;9.756;2023-07-24T02:12:01;-12813.44;;;20.72;100.00
14594;BME280;7383;52.354;9.756;2023-07-24T02:14:28;-12813.63;;;20.73;100.00
14594;BME280;7383;52.354;9.756;2023-07-24T02:16:55;-12813.63;;;20.73;100.00
14594;BME280;7383;52.354;9.756;2023-07-24T02:19:23;-12814.13;;;20.76;100.00
14594;BME280;7383;52.354;9.756;2023-07-24T02:21:50;-12814.41;;;20.78;100.00
14594;BME280;7383;52.354;9.756;2023-07-24T02:24:16;-12814.13;;;20.76;100.00
14594;BME280;7383;52.354;9.756;2023-07-24T02:26:43;-12813.78;;;20.74;100.00
14594;BME280;7383;52.354;9.756;2023-07-24T02:29:09;-12813.38;;;20.72;100.00
14594;BME280;7383;52.354;9.756;2023-07-24T02:31:36;-12812.94;;;20.69;100.00
14594;BME280;7383;52.354;9.756;2023-07-24T02:34:02;-12812.69;;;20.68;100.00
14594;BME280;7383;52.354;9.756;2023-07-24T02:36:30;-12812.50;;;20.67;100.00
14594;BME280;7383;52.354;9.756;2023-07-24T02:38:57;-12812.75;;;20.68;100.00
14594;BME280;7383;52.354;9.756;2023-07-24T02:41:23;-12812.41;;;20.66;100.00
14594;BME280;7383;52.354;9.756;2023-07-24T02:43:50;-12812.84;;;20.69;100.00
14594;BME280;7383;52.354;9.756;2023-07-24T02:46:16;-12812.59;;;20.67;100.00
14594;BME280;7383;52.354;9.756;2023-07-24T02:48:43;-12812.59;;;20.67;100.00
14594;BME280;7383;52.354;9.756;2023-07-24T02:51:10;-12812.41;;;20.66;100.00
14594;BME280;7383;52.354;9.756;2023-07-24T02:53:38;-12812.50;;;20.67;100.00
14594;BME280;7383;52.354;9.756;2023-07-24T02:56:04;-12812.75;;;20.68;100.00
14594;BME280;7383;52.354;9.756;2023-07-24T02:58:31;-12812.75;;;20.68;100.00
14594;BME280;7383;52.354;9.756;2023-07-24T03:01:03;-12812.75;;;20.68;100.00
14594;BME280;7383;52.354;9.756;2023-07-24T03:03:33;-12812.69;;;20.68;100.00
14594;BME280;7383;52.354;9.756;2023-07-24T03:05:59;-12812.34;;;20.66;100.00
14594;BME280;7383;52.354;9.756;2023-07-24T03:08:26;-12812.06;;;20.64;100.00
14594;BME280;7383;52.354;9.756;2023-07-24T03:10:54;-12811.72;;;20.62;100.00
14594;BME280;7383;52.354;9.756;2023-07-24T03:13:20;-12811.38;;;20.60;100.00
14594;BME280;7383;52.354;9.756;2023-07-24T03:15:52;-12811.38;;;20.60;100.00
14594;BME280;7383;52.354;9.756;2023-07-24T03:18:20;-12811.31;;;20.59;100.00
14594;BME280;7383;52.354;9.756;2023-07-24T03:20:46;-12811.13;;;20.58;100.00
14594;BME280;7383;52.354;9.756;2023-07-24T03:23:13;-12811.22;;;20.59;100.00
14594;BME280;7383;52.354;9.756;2023-07-24T03:25:40;-12811.66;;;20.61;100.00
14594;BME280;7383;52.354;9.756;2023-07-24T03:28:09;-12811.66;;;20.61;100.00
14594;BME280;7383;52.354;9.756;2023-07-24T03:30:36;-12811.13;;;20.58;100.00
14594;BME280;7383;52.354;9.756;2023-07-24T03:33:03;-12810.88;;;20.57;100.00
14594;BME280;7383;52.354;9.756;2023-07-24T03:35:31;-12811.13;;;20.58;100.00
14594;BME280;7383;52.354;9.756;2023-07-24T03:37:58;-12810.88;;;20.57;100.00
14594;BME280;7383;52.354;9.756;2023-07-24T03:40:24;-12810.88;;;20.57;100.00
14594;BME280;7383;52.354;9.756;2023-07-24T03:42:51;-12811.06;;;20.58;100.00
14594;BME280;7383;52.354;9.756;2023-07-24T03:45:19;-12810.69;;;20.56;100.00
14594;BME280;7383;52.354;9.756;2023-07-24T03:47:45;-12810.69;;;20.56;100.00
14594;BME280;7383;52.354;9.756;2023-07-24T03:50:12;-12810.28;;;20.53;100.00
14594;BME280;7383;52.354;9.756;2023-07-24T03:52:38;-12809.84;;;20.51;100.00
14594;BME280;7383;52.354;9.756;2023-07-24T03:55:05;-12809.84;;;20.51;100.00
14594;BME280;7383;52.354;9.756;2023-07-24T03:57:33;-12809.59;;;20.49;100.00
14594;BME280;7383;52.354;9.756;2023-07-24T03:59:59;-12809.50;;;20.49;100.00
14594;BME280;7383;52.354;9.756;2023-07-24T04:02:27;-12809.31;;;20.48;100.00
14594;BME280;7383;52.354;9.756;2023-07-24T04:04:54;-12808.81;;;20.45;100.00
14594;BME280;7383;52.354;9.756;2023-07-24T04:07:21;-12808.47;;;20.43;100.00
14594;BME280;7383;52.354;9.756;2023-07-24T04:09:47;-12808.38;;;20.42;100.00
14594;BME280;7383;52.354;9.756;2023-07-24T04:12:14;-12808.72;;;20.44;100.00
14594;BME280;7383;52.354;9.756;2023-07-24T04:14:41;-12808.72;;;20.44;100.00
14594;BME280;7383;52.354;9.756;2023-07-24T04:17:07;-12809.00;;;20.46;100.00
14594;BME280;7383;52.354;9.756;2023-07-24T04:19:35;-12808.63;;;20.44;100.00
14594;BME280;7383;52.354;9.756;2023-07-24T04:22:02;-12808.63;;;20.44;100.00
14594;BME280;7383;52.354;9.756;2023-07-24T04:24:29;-12808.56;;;20.43;100.00
14594;BME280;7383;52.354;9.756;2023-07-24T04:26:55;-12809.00;;;20.46;100.00
14594;BME280;7383;52.354;9.756;2023-07-24T04:29:22;-12809.31;;;20.48;100.00
14594;BME280;7383;52.354;9.756;2023-07-24T04:31:51;-12809.41;;;20.48;100.00
14594;BME280;7383;52.354;9.756;2023-07-24T04:34:17;-12809.50;;;20.49;100.00
14594;BME280;7383;52.354;9.756;2023-07-24T04:36:46;-12809.31;;;20.48;100.00
14594;BME280;7383;52.354;9.756;2023-07-24T04:39:12;-12809.16;;;20.47;100.00
14594;BME280;7383;52.354;9.756;2023-07-24T04:41:39;-12808.56;;;20.43;100.00
14594;BME280;7383;52.354;9.756;2023-07-24T04:44:05;-12808.47;;;20.43;100.00
14594;BME280;7383;52.354;9.756;2023-07-24T04:46:32;-12808.38;;;20.42;100.00
14594;BME280;7383;52.354;9.756;2023-07-24T04:48:58;-12808.72;;;20.44;100.00
14594;BME280;7383;52.354;9.756;2023-07-24T04:51:25;-12809.00;;;20.46;100.00
14594;BME280;7383;52.354;9.756;2023-07-24T04:53:55;-12809.59;;;20.49;100.00
14594;BME280;7383;52.354;9.756;2023-07-24T04:56:22;-12810.38;;;20.54;100.00
14594;BME280;7383;52.354;9.756;2023-07-24T04:58:48;-12811.31;;;20.59;100.00
14594;BME280;7383;52.354;9.756;2023-07-24T05:01:15;-12811.66;;;20.61;100.00
14594;BME280;7383;52.354;9.756;2023-07-24T05:03:41;-12811.91;;;20.63;100.00
14594;BME280;7383;52.354;9.756;2023-07-24T05:06:08;-12812.06;;;20.64;100.00
14594;BME280;7383;52.354;9.756;2023-07-24T05:08:35;-12812.16;;;20.65;100.00
14594;BME280;7383;52.354;9.756;2023-07-24T05:11:02;-12812.75;;;20.68;100.00
14594;BME280;7383;52.354;9.756;2023-07-24T05:13:29;-12813.09;;;20.70;100.00
14594;BME280;7383;52.354;9.756;2023-07-24T05:15:55;-12814.22;;;20.77;100.00
14594;BME280;7383;52.354;9.756;2023-07-24T05:18:22;-12815.84;;;20.86;100.00
14594;BME280;7383;52.354;9.756;2023-07-24T05:20:49;-12817.31;;;20.95;100.00
14594;BME280;7383;52.354;9.756;2023-07-24T05:23:16;-12817.84;;;20.98;100.00
14594;BME280;7383;52.354;9.756;2023-07-24T05:25:43;-12819.13;;;21.05;100.00
14594;BME280;7383;52.354;9.756;2023-07-24T05:28:11;-12820.50;;;21.14;100.00
14594;BME280;7383;52.354;9.756;2023-07-24T05:30:37;-12821.44;;;21.19;100.00
14594;BME280;7383;52.354;9.756;2023-07-24T05:33:04;-12820.91;;;21.16;100.00
14594;BME280;7383;52.354;9.756;2023-07-24T05:35:31;-12820.91;;;21.16;100.00
14594;BME280;7383;52.354;9.756;2023-07-24T05:37:57;-12820.56;;;21.14;100.00
14594;BME280;7383;52.354;9.756;2023-07-24T05:40:24;-12819.19;;;21.06;100.00
14594;BME280;7383;52.354;9.756;2023-07-24T05:42:50;-12818.44;;;21.01;100.00
14594;BME280;7383;52.354;9.756;2023-07-24T05:45:18;-12817.91;;;20.98;100.00
14594;BME280;7383;52.354;9.756;2023-07-24T05:47:45;-12817.84;;;20.98;100.00
14594;BME280;7383;52.354;9.756;2023-07-24T05:50:11;-12817.66;;;20.97;100.00
14594;BME280;7383;52.354;9.756;2023-07-24T05:52:39;-12817.56;;;20.96;100.00
14594;BME280;7383;52.354;9.756;2023-07-24T05:55:08;-12817.56;;;20.96;100.00
14594;BME280;7383;52.354;9.756;2023-07-24T05:57:34;-12816.97;;;20.93;100.00
14594;BME280;7383;52.354;9.756;2023-07-24T06:00:01;-12816.19;;;20.88;100.00
14594;BME280;7383;52.354;9.756;2023-07-24T06:02:29;-12815.50;;;20.84;100.00
14594;BME280;7383;52.354;9.756;2023-07-24T06:04:56;-12815.59;;;20.85;100.00
14594;BME280;7383;52.354;9.756;2023-07-24T06:07:22;-12816.19;;;20.88;100.00
14594;BME280;7383;52.354;9.756;2023-07-24T06:09:49;-12816.88;;;20.92;100.00
14594;BME280;7383;52.354;9.756;2023-07-24T06:12:16;-12816.78;;;20.92;100.00
14594;BME280;7383;52.354;9.756;2023-07-24T06:14:45;-12816.72;;;20.91;100.00
14594;BME280;7383;52.354;9.756;2023-07-24T06:17:12;-12817.31;;;20.95;100.00
14594;BME280;7383;52.354;9.756;2023-07-24T06:19:40;-12818.25;;;21.00;100.00
14594;BME280;7383;52.354;9.756;2023-07-24T06:22:07;-12819.28;;;21.06;100.00
14594;BME280;7383;52.354;9.756;2023-07-24T06:24:33;-12819.53;;;21.08;100.00
14594;BME280;7383;52.354;9.756;2023-07-24T06:27:00;-12819.38;;;21.07;100.00
14594;BME280;7383;52.354;9.756;2023-07-24T06:29:26;-12819.81;;;21.09;100.00
14594;BME280;7383;52.354;9.756;2023-07-24T06:31:53;-12821.09;;;21.17;100.00
14594;BME280;7383;52.354;9.756;2023-07-24T06:34:19;-12822.13;;;21.23;100.00
14594;BME280;7383;52.354;9.756;2023-07-24T06:36:47;-12822.63;;;21.26;100.00
14594;BME280;7383;52.354;9.756;2023-07-24T06:39:14;-12822.72;;;21.27;100.00
14594;BME280;7383;52.354;9.756;2023-07-24T06:41:40;-12822.38;;;21.25;100.00
14594;BME280;7383;52.354;9.756;2023-07-24T06:44:07;-12822.22;;;21.24;100.00
14594;BME280;7383;52.354;9.756;2023-07-24T06:46:33;-12821.78;;;21.21;100.00
14594;BME280;7383;52.354;9.756;2023-07-24T06:49:00;-12820.84;;;21.16;100.00
14594;BME280;7383;52.354;9.756;2023-07-24T06:51:27;-12820.41;;;21.13;100.00
14594;BME280;7383;52.354;9.756;2023-07-24T06:53:54;-12819.72;;;21.09;100.00
14594;BME280;7383;52.354;9.756;2023-07-24T06:56:21;-12819.63;;;21.08;100.00
14594;BME280;7383;52.354;9.756;2023-07-24T06:58:48;-12819.81;;;21.09;100.00
14594;BME280;7383;52.354;9.756;2023-07-24T07:01:14;-12819.72;;;21.09;100.00
14594;BME280;7383;52.354;9.756;2023-07-24T07:03:41;-12819.38;;;21.07;100.00
14594;BME280;7383;52.354;9.756;2023-07-24T07:06:07;-12819.03;;;21.05;100.00
14594;BME280;7383;52.354;9.756;2023-07-24T07:08:35;-12818.78;;;21.03;100.00
14594;BME280;7383;52.354;9.756;2023-07-24T07:11:03;-12818.25;;;21.00;100.00
14594;BME280;7383;52.354;9.756;2023-07-24T07:13:29;-12817.91;;;20.98;100.00
14594;BME280;7383;52.354;9.756;2023-07-24T07:15:56;-12817.84;;;20.98;100.00
14594;BME280;7383;52.354;9.756;2023-07-24T07:18:22;-12818.00;;;20.99;100.00
14594;BME280;7383;52.354;9.756;2023-07-24T07:20:50;-12817.66;;;20.97;100.00
14594;BME280;7383;52.354;9.756;2023-07-24T07:23:18;-12817.56;;;20.96;100.00
14594;BME280;7383;52.354;9.756;2023-07-24T07:25:45;-12817.84;;;20.98;100.00
14594;BME280;7383;52.354;9.756;2023-07-24T07:28:13;-12817.66;;;20.97;100.00
14594;BME280;7383;52.354;9.756;2023-07-24T07:30:40;-12817.47;;;20.96;100.00
14594;BME280;7383;52.354;9.756;2023-07-24T07:33:06;-12816.97;;;20.93;100.00
14594;BME280;7383;52.354;9.756;2023-07-24T07:35:33;-12816.88;;;20.92;100.00
14594;BME280;7383;52.354;9.756;2023-07-24T07:38:01;-12816.53;;;20.90;100.00
14594;BME280;7383;52.354;9.756;2023-07-24T07:40:28;-12816.53;;;20.90;100.00
14594;BME280;7383;52.354;9.756;2023-07-24T07:42:55;-12816.88;;;20.92;100.00
14594;BME280;7383;52.354;9.756;2023-07-24T07:45:24;-12816.72;;;20.91;100.00
14594;BME280;7383;52.354;9.756;2023-07-24T07:47:50;-12817.22;;;20.94;100.00
14594;BME280;7383;52.354;9.756;2023-07-24T07:50:18;-12817.31;;;20.95;100.00
14594;BME280;7383;52.354;9.756;2023-07-24T07:52:45;-12817.31;;;20.95;100.00
14594;BME280;7383;52.354;9.756;2023-07-24T07:55:13;-12817.22;;;20.94;100.00
14594;BME280;7383;52.354;9.756;2023-07-24T07:57:39;-12816.53;;;20.90;100.00
14594;BME280;7383;52.354;9.756;2023-07-24T08:00:07;-12816.03;;;20.87;100.00
14594;BME280;7383;52.354;9.756;2023-07-24T08:02:35;-12815.34;;;20.83;100.00
14594;BME280;7383;52.354;9.756;2023-07-24T08:05:05;-12813.97;;;20.75;100.00
14594;BME280;7383;52.354;9.756;2023-07-24T08:07:32;-12813.53;;;20.73;100.00
14594;BME280;7383;52.354;9.756;2023-07-24T08:09:59;-12813.78;;;20.74;100.00
14594;BME280;7383;52.354;9.756;2023-07-24T08:12:25;-12814.31;;;20.77;100.00
14594;BME280;7383;52.354;9.756;2023-07-24T08:14:55;-12813.97;;;20.75;100.00
14594;BME280;7383;52.354;9.756;2023-07-24T08:17:21;-12813.38;;;20.72;100.00
14594;BME280;7383;52.354;9.756;2023-07-24T08:19:49;-12813.72;;;20.74;100.00
14594;BME280;7383;52.354;9.756;2023-07-24T08:22:16;-12815.09;;;20.82;100.00
14594;BME280;7383;52.354;9.756;2023-07-24T08:24:43;-12815.84;;;20.86;100.00
14594;BME280;7383;52.354;9.756;2023-07-24T08:27:10;-12816.03;;;20.87;100.00
14594;BME280;7383;52.354;9.756;2023-07-24T08:29:37;-12816.38;;;20.89;100.00
14594;BME280;7383;52.354;9.756;2023-07-24T08:32:04;-12816.63;;;20.91;100.00
14594;BME280;7383;52.354;9.756;2023-07-24T08:34:31;-12817.16;;;20.94;100.00
14594;BME280;7383;52.354;9.756;2023-07-24T08:36:59;-12817.84;;;20.98;100.00
14594;BME280;7383;52.354;9.756;2023-07-24T08:39:25;-12818.50;;;21.02;100.00
14594;BME280;7383;52.354;9.756;2023-07-24T08:41:52;-12818.09;;;20.99;100.00
14594;BME280;7383;52.354;9.756;2023-07-24T08:44:20;-12817.91;;;20.98;100.00
14594;BME280;7383;52.354;9.756;2023-07-24T08:46:47;-12818.69;;;21.03;100.00
14594;BME280;7383;52.354;9.756;2023-07-24T08:49:15;-12820.56;;;21.14;100.00
14594;BME280;7383;52.354;9.756;2023-07-24T08:51:44;-12822.47;;;21.25;100.00
14594;BME280;7383;52.354;9.756;2023-07-24T08:54:13;-12824.59;;;21.38;100.00
14594;BME280;7383;52.354;9.756;2023-07-24T08:56:40;-12828.22;;;21.59;100.00
14594;BME280;7383;52.354;9.756;2023-07-24T08:59:12;-12831.28;;;21.77;100.00
14594;BME280;7383;52.354;9.756;2023-07-24T09:01:38;-12833.44;;;21.90;100.00
14594;BME280;7383;52.354;9.756;2023-07-24T09:04:05;-12835.25;;;22.00;100.00
14594;BME280;7383;52.354;9.756;2023-07-24T09:06:32;-12835.84;;;22.04;100.00
14594;BME280;7383;52.354;9.756;2023-07-24T09:09:01;-12835.91;;;22.04;100.00
14594;BME280;7383;52.354;9.756;2023-07-24T09:11:29;-12835.91;;;22.04;100.00
14594;BME280;7383;52.354;9.756;2023-07-24T09:13:56;-12835.59;;;22.02;100.00
14594;BME280;7383;52.354;9.756;2023-07-24T09:16:24;-12836.09;;;22.05;100.00
14594;BME280;7383;52.354;9.756;2023-07-24T09:18:51;-12837.22;;;22.12;100.00
14594;BME280;7383;52.354;9.756;2023-07-24T09:21:27;-12839.09;;;22.23;100.00
14594;BME280;7383;52.354;9.756;2023-07-24T09:23:53;-12840.53;;;22.32;100.00
14594;BME280;7383;52.354;9.756;2023-07-24T09:26:20;-12841.06;;;22.35;100.00
14594;BME280;7383;52.354;9.756;2023-07-24T09:28:53;-12842.59;;;22.44;100.00
14594;BME280;7383;52.354;9.756;2023-07-24T09:31:20;-12843.78;;;22.51;100.00
14594;BME280;7383;52.354;9.756;2023-07-24T09:33:47;-12845.59;;;22.62;100.00
14594;BME280;7383;52.354;9.756;2023-07-24T09:36:13;-12845.50;;;22.61;100.00
14594;BME280;7383;52.354;9.756;2023-07-24T09:38:40;-12845.94;;;22.64;100.00
14594;BME280;7383;52.354;9.756;2023-07-24T09:41:07;-12845.16;;;22.59;100.00
14594;BME280;7383;52.354;9.756;2023-07-24T09:43:34;-12845.59;;;22.62;100.00
14594;BME280;7383;52.354;9.756;2023-07-24T09:46:04;-12846.03;;;22.64;100.00
14594;BME280;7383;52.354;9.756;2023-07-24T09:48:31;-12845.69;;;22.62;100.00
14594;BME280;7383;52.354;9.756;2023-07-24T09:50:59;-12845.09;;;22.58;100.00
14594;BME280;7383;52.354;9.756;2023-07-24T09:53:31;-12845.09;;;22.58;100.00
14594;BME280;7383;52.354;9.756;2023-07-24T09:56:02;-12844.91;;;22.57;100.00
14594;BME280;7383;52.354;9.756;2023-07-24T09:58:30;-12844.91;;;22.57;100.00
14594;BME280;7383;52.354;9.756;2023-07-24T10:00:58;-12845.34;;;22.60;100.00
14594;BME280;7383;52.354;9.756;2023-07-24T10:03:27;-12844.66;;;22.56;100.00
14594;BME280;7383;52.354;9.756;2023-07-24T10:05:55;-12843.72;;;22.50;100.00
14594;BME280;7383;52.354;9.756;2023-07-24T10:08:22;-12844.13;;;22.53;100.00
14594;BME280;7383;52.354;9.756;2023-07-24T10:10:49;-12844.31;;;22.54;100.00
14594;BME280;7383;52.354;9.756;2023-07-24T10:13:19;-12844.66;;;22.56;100.00
14594;BME280;7383;52.354;9.756;2023-07-24T10:15:47;-12846.28;;;22.66;100.00
14594;BME280;7383;52.354;9.756;2023-07-24T10:18:16;-12848.84;;;22.81;100.00
14594;BME280;7383;52.354;9.756;2023-07-24T10:20:44;-12849.97;;;22.87;100.00
14594;BME280;7383;52.354;9.756;2023-07-24T10:23:16;-12850.13;;;22.88;100.00
14594;BME280;7383;52.354;9.756;2023-07-24T10:25:45;-12850.72;;;22.92;100.00
14594;BME280;7383;52.354;9.756;2023-07-24T10:28:13;-12851.06;;;22.94;100.00
14594;BME280;7383;52.354;9.756;2023-07-24T10:30:42;-12851.25;;;22.95;100.00
14594;BME280;7383;52.354;9.756;2023-07-24T10:33:10;-12851.94;;;22.99;100.00
14594;BME280;7383;52.354;9.756;2023-07-24T10:35:42;-12853.47;;;23.08;100.00
14594;BME280;7383;52.354;9.756;2023-07-24T10:38:11;-12855.00;;;23.17;100.00
14594;BME280;7383;52.354;9.756;2023-07-24T10:40:39;-12856.03;;;23.23;100.00
14594;BME280;7383;52.354;9.756;2023-07-24T10:43:07;-12856.63;;;23.27;100.00
14594;BME280;7383;52.354;9.756;2023-07-24T10:45:41;-12858.00;;;23.35;100.00
14594;BME280;7383;52.354;9.756;2023-07-24T10:48:08;-12858.34;;;23.37;100.00
14594;BME280;7383;52.354;9.756;2023-07-24T10:50:40;-12857.81;;;23.34;100.00
14594;BME280;7383;52.354;9.756;2023-07-24T10:53:08;-12857.66;;;23.33;100.00
14594;BME280;7383;52.354;9.756;2023-07-24T10:55:36;-12857.81;;;23.34;100.00
14594;BME280;7383;52.354;9.756;2023-07-24T10:58:03;-12858.00;;;23.35;100.00
14594;BME280;7383;52.354;9.756;2023-07-24T11:00:30;-12857.22;;;23.30;100.00
14594;BME280;7383;52.354;9.756;2023-07-24T11:02:56;-12857.41;;;23.31;100.00
14594;BME280;7383;52.354;9.756;2023-07-24T11:05:23;-12857.13;;;23.30;100.00
14594;BME280;7383;52.354;9.756;2023-07-24T11:07:50;-12857.47;;;23.32;100.00
14594;BME280;7383;52.354;9.756;2023-07-24T11:10:17;-12858.16;;;23.36;100.00
14594;BME280;7383;52.354;9.756;2023-07-24T11:12:45;-12858.06;;;23.35;100.00
14594;BME280;7383;52.354;9.756;2023-07-24T11:15:12;-12857.47;;;23.32;100.00
14594;BME280;7383;52.354;9.756;2023-07-24T11:17:40;-12857.47;;;23.32;100.00
14594;BME280;7383;52.354;9.756;2023-07-24T11:20:09;-12857.91;;;23.34;100.00
14594;BME280;7383;52.354;9.756;2023-07-24T11:22:38;-12859.09;;;23.41;100.00
14594;BME280;7383;52.354;9.756;2023-07-24T11:25:06;-12860.72;;;23.51;100.00
14594;BME280;7383;52.354;9.756;2023-07-24T11:27:37;-12859.63;;;23.44;100.00
14594;BME280;7383;52.354;9.756;2023-07-24T11:30:06;-12858.59;;;23.38;100.00
14594;BME280;7383;52.354;9.756;2023-07-24T11:32:34;-12858.50;;;23.38;100.00
14594;BME280;7383;52.354;9.756;2023-07-24T11:35:01;-12857.72;;;23.33;100.00
14594;BME280;7383;52.354;9.756;2023-07-24T11:37:29;-12857.22;;;23.30;100.00
14594;BME280;7383;52.354;9.756;2023-07-24T11:39:57;-12856.28;;;23.25;100.00
14594;BME280;7383;52.354;9.756;2023-07-24T11:42:25;-12854.31;;;23.13;100.00
14594;BME280;7383;52.354;9.756;2023-07-24T11:44:54;-12853.38;;;23.08;100.00
14594;BME280;7383;52.354;9.756;2023-07-24T11:47:22;-12853.38;;;23.08;100.00
14594;BME280;7383;52.354;9.756;2023-07-24T11:50:06;-12854.16;;;23.12;100.00
14594;BME280;7383;52.354;9.756;2023-07-24T11:52:39;-12855.78;;;23.22;100.00
14594;BME280;7383;52.354;9.756;2023-07-24T11:55:08;-12856.78;;;23.28;100.00
14594;BME280;7383;52.354;9.756;2023-07-24T11:57:35;-12857.81;;;23.34;100.00
14594;BME280;7383;52.354;9.756;2023-07-24T12:00:03;-12858.84;;;23.40;100.00
14594;BME280;7383;52.354;9.756;2023-07-24T12:02:33;-12858.69;;;23.39;100.00
14594;BME280;7383;52.354;9.756;2023-07-24T12:05:00;-12858.06;;;23.35;100.00
14594;BME280;7383;52.354;9.756;2023-07-24T12:07:32;-12857.06;;;23.29;100.00
14594;BME280;7383;52.354;9.756;2023-07-24T12:09:59;-12855.84;;;23.22;100.00
14594;BME280;7383;52.354;9.756;2023-07-24T12:12:39;-12855.69;;;23.21;100.00
14594;BME280;7383;52.354;9.756;2023-07-24T12:15:08;-12853.91;;;23.11;100.00
14594;BME280;7383;52.354;9.756;2023-07-24T12:17:38;-12853.13;;;23.06;100.00
14594;BME280;7383;52.354;9.756;2023-07-24T12:20:06;-12852.19;;;23.00;100.00
14594;BME280;7383;52.354;9.756;2023-07-24T12:22:34;-12852.00;;;22.99;100.00
14594;BME280;7383;52.354;9.756;2023-07-24T12:25:02;-12852.09;;;23.00;100.00
14594;BME280;7383;52.354;9.756;2023-07-24T12:27:28;-12851.66;;;22.97;100.00
14594;BME280;7383;52.354;9.756;2023-07-24T12:29:56;-12849.19;;;22.83;100.00
14594;BME280;7383;52.354;9.756;2023-07-24T12:32:23;-12847.81;;;22.75;100.00
14594;BME280;7383;52.354;9.756;2023-07-24T12:34:52;-12846.97;;;22.70;100.00
14594;BME280;7383;52.354;9.756;2023-07-24T12:37:19;-12846.53;;;22.67;100.00
14594;BME280;7383;52.354;9.756;2023-07-24T12:39:47;-12847.22;;;22.71;100.00
14594;BME280;7383;52.354;9.756;2023-07-24T12:42:14;-12846.44;;;22.67;100.00
14594;BME280;7383;52.354;9.756;2023-07-24T12:44:42;-12845.16;;;22.59;100.00
14594;BME280;7383;52.354;9.756;2023-07-24T12:47:10;-12843.78;;;22.51;100.00
14594;BME280;7383;52.354;9.756;2023-07-24T12:49:39;-12842.78;;;22.45;100.00
14594;BME280;7383;52.354;9.756;2023-07-24T12:52:07;-12842.34;;;22.42;100.00